sensor_id;sensor_type;location;lat;lon;timestamp;pressure;altitude;pressure_sealevel;temperature;humidity
70521;BME280;58442;52.716;23.560;2023-02-20T00:00:07;101106.24;;;0.57;61.52
70521;BME280;58442;52.716;23.560;2023-02-20T00:02:15;101111.59;;;0.57;61.61
70521;BME280;58442;52.716;23.560;2023-02-20T00:04:17;101116.66;;;0.58;61.73
70521;BME280;58442;52.716;23.560;2023-02-20T00:06:19;101120.94;;;0.59;61.79
70521;BME280;58442;52.716;23.560;2023-02-20T00:08:21;101128.68;;;0.61;61.87
70521;BME280;58442;52.716;23.560;2023-02-20T00:10:23;101123.88;;;0.63;62.15
70521;BME280;58442;52.716;23.560;2023-02-20T00:12:25;101116.39;;;0.65;62.01
70521;BME280;58442;52.716;23.560;2023-02-20T00:14:34;101116.91;;;0.67;62.07
70521;BME280;58442;52.716;23.560;2023-02-20T00:16:36;101109.44;;;0.69;62.19
70521;BME280;58442;52.716;23.560;2023-02-20T00:18:37;101102.72;;;0.71;62.19
70521;BME280;58442;52.716;23.560;2023-02-20T00:20:39;101127.05;;;0.75;62.23
70521;BME280;58442;52.716;23.560;2023-02-20T00:22:50;101118.48;;;0.78;62.29
70521;BME280;58442;52.716;23.560;2023-02-20T00:24:52;101112.58;;;0.81;62.36
70521;BME280;58442;52.716;23.560;2023-02-20T00:26:53;101108.83;;;0.82;62.44
70521;BME280;58442;52.716;23.560;2023-02-20T00:28:54;101108.30;;;0.85;62.35
70521;BME280;58442;52.716;23.560;2023-02-20T00:31:05;101111.50;;;0.87;62.41
70521;BME280;58442;52.716;23.560;2023-02-20T00:33:07;101125.39;;;0.89;62.48
70521;BME280;58442;52.716;23.560;2023-02-20T00:35:11;101129.42;;;0.92;62.64
70521;BME280;58442;52.716;23.560;2023-02-20T00:37:13;101120.83;;;0.95;62.48
70521;BME280;58442;52.716;23.560;2023-02-20T00:39:20;101113.35;;;0.97;62.53
70521;BME280;58442;52.716;23.560;2023-02-20T00:41:21;101131.01;;;0.98;62.58
70521;BME280;58442;52.716;23.560;2023-02-20T00:43:22;101128.05;;;0.99;62.58
70521;BME280;58442;52.716;23.560;2023-02-20T00:45:24;101118.95;;;1.00;62.59
70521;BME280;58442;52.716;23.560;2023-02-20T00:47:35;101113.05;;;1.03;62.66
70521;BME280;58442;52.716;23.560;2023-02-20T00:49:36;101111.18;;;1.04;62.71
70521;BME280;58442;52.716;23.560;2023-02-20T00:51:37;101109.02;;;1.06;62.72
70521;BME280;58442;52.716;23.560;2023-02-20T00:53:39;101117.56;;;1.08;62.75
70521;BME280;58442;52.716;23.560;2023-02-20T00:55:50;101104.98;;;1.08;62.81
70521;BME280;58442;52.716;23.560;2023-02-20T00:57:51;101108.21;;;1.11;62.86
70521;BME280;58442;52.716;23.560;2023-02-20T00:59:52;101104.17;;;1.13;62.87
70521;BME280;58442;52.716;23.560;2023-02-20T01:01:54;101096.66;;;1.15;62.94
70521;BME280;58442;52.716;23.560;2023-02-20T01:04:05;101095.86;;;1.15;62.99
70521;BME280;58442;52.716;23.560;2023-02-20T01:06:06;101097.46;;;1.16;63.04
70521;BME280;58442;52.716;23.560;2023-02-20T01:08:07;101081.95;;;1.18;63.12
70521;BME280;58442;52.716;23.560;2023-02-20T01:10:13;101076.31;;;1.19;63.13
70521;BME280;58442;52.716;23.560;2023-02-20T01:12:20;101069.88;;;1.20;63.25
70521;BME280;58442;52.716;23.560;2023-02-20T01:14:21;101077.34;;;1.23;63.31
70521;BME280;58442;52.716;23.560;2023-02-20T01:16:22;101067.45;;;1.24;63.42
70521;BME280;58442;52.716;23.560;2023-02-20T01:18:25;101074.92;;;1.27;63.43
70521;BME280;58442;52.716;23.560;2023-02-20T01:20:35;101070.38;;;1.27;63.54
70521;BME280;58442;52.716;23.560;2023-02-20T01:22:36;101070.09;;;1.29;63.67
70521;BME280;58442;52.716;23.560;2023-02-20T01:24:37;101060.72;;;1.31;63.69
70521;BME280;58442;52.716;23.560;2023-02-20T01:26:41;101063.91;;;1.33;63.70
70521;BME280;58442;52.716;23.560;2023-02-20T01:28:50;101064.41;;;1.35;63.80
70521;BME280;58442;52.716;23.560;2023-02-20T01:30:51;101063.34;;;1.36;63.88
70521;BME280;58442;52.716;23.560;2023-02-20T01:32:52;101058.52;;;1.39;63.93
70521;BME280;58442;52.716;23.560;2023-02-20T01:34:54;101063.09;;;1.38;64.13
70521;BME280;58442;52.716;23.560;2023-02-20T01:37:05;101075.91;;;1.41;64.22
70521;BME280;58442;52.716;23.560;2023-02-20T01:39:06;101082.85;;;1.42;64.20
70521;BME280;58442;52.716;23.560;2023-02-20T01:41:08;101080.98;;;1.43;64.33
70521;BME280;58442;52.716;23.560;2023-02-20T01:43:10;101078.85;;;1.45;64.34
70521;BME280;58442;52.716;23.560;2023-02-20T01:45:32;101090.36;;;1.45;64.67
70521;BME280;58442;52.716;23.560;2023-02-20T01:47:41;101087.93;;;1.44;64.80
70521;BME280;58442;52.716;23.560;2023-02-20T01:49:46;101091.70;;;1.43;64.92
70521;BME280;58442;52.716;23.560;2023-02-20T01:54:07;101098.65;;;1.44;65.16
70521;BME280;58442;52.716;23.560;2023-02-20T01:56:10;101104.83;;;1.44;65.39
70521;BME280;58442;52.716;23.560;2023-02-20T01:58:24;101097.05;;;1.43;65.49
70521;BME280;58442;52.716;23.560;2023-02-20T02:00:28;101095.45;;;1.42;65.70
70521;BME280;58442;52.716;23.560;2023-02-20T02:02:32;101101.60;;;1.42;65.93
70521;BME280;58442;52.716;23.560;2023-02-20T02:04:36;101100.02;;;1.41;66.04
70521;BME280;58442;52.716;23.560;2023-02-20T02:06:43;101106.96;;;1.42;65.99
70521;BME280;58442;52.716;23.560;2023-02-20T02:08:59;101111.79;;;1.45;66.25
70521;BME280;58442;52.716;23.560;2023-02-20T02:11:09;101105.63;;;1.45;66.36
70521;BME280;58442;52.716;23.560;2023-02-20T02:13:11;101103.75;;;1.45;66.44
70521;BME280;58442;52.716;23.560;2023-02-20T02:15:17;101096.51;;;1.46;66.46
70521;BME280;58442;52.716;23.560;2023-02-20T02:17:28;101094.35;;;1.48;66.54
70521;BME280;58442;52.716;23.560;2023-02-20T02:31:55;101079.56;;;1.55;67.00
70521;BME280;58442;52.716;23.560;2023-02-20T02:38:35;101082.25;;;1.55;67.33
70521;BME280;58442;52.716;23.560;2023-02-20T02:40:51;101076.09;;;1.55;67.53
70521;BME280;58442;52.716;23.560;2023-02-20T02:45:11;101073.69;;;1.53;67.70
70521;BME280;58442;52.716;23.560;2023-02-20T02:47:24;101067.55;;;1.53;67.90
70521;BME280;58442;52.716;23.560;2023-02-20T02:49:30;101070.22;;;1.53;67.91
70521;BME280;58442;52.716;23.560;2023-02-20T02:51:38;101078.25;;;1.53;68.06
70521;BME280;58442;52.716;23.560;2023-02-20T02:56:18;101066.98;;;1.56;68.21
70521;BME280;58442;52.716;23.560;2023-02-20T02:58:22;101071.25;;;1.57;68.32
70521;BME280;58442;52.716;23.560;2023-02-20T03:02:48;101062.96;;;1.58;68.33
70521;BME280;58442;52.716;23.560;2023-02-20T03:04:52;101053.55;;;1.61;68.43
70521;BME280;58442;52.716;23.560;2023-02-20T03:06:59;101062.38;;;1.61;68.44
70521;BME280;58442;52.716;23.560;2023-02-20T03:09:09;101068.53;;;1.62;68.57
70521;BME280;58442;52.716;23.560;2023-02-20T03:11:18;101080.56;;;1.64;68.59
70521;BME280;58442;52.716;23.560;2023-02-20T03:13:23;101055.65;;;1.64;68.62
70521;BME280;58442;52.716;23.560;2023-02-20T03:15:41;101065.32;;;1.65;68.70
70521;BME280;58442;52.716;23.560;2023-02-20T03:20:06;101057.80;;;1.67;68.75
70521;BME280;58442;52.716;23.560;2023-02-20T03:22:14;101059.10;;;1.70;68.88
70521;BME280;58442;52.716;23.560;2023-02-20T03:24:19;101062.32;;;1.72;68.82
70521;BME280;58442;52.716;23.560;2023-02-20T03:26:29;101054.80;;;1.74;68.85
70521;BME280;58442;52.716;23.560;2023-02-20T03:28:39;101056.68;;;1.73;68.88
70521;BME280;58442;52.716;23.560;2023-02-20T03:35:31;101034.95;;;1.75;69.03
70521;BME280;58442;52.716;23.560;2023-02-20T03:37:49;101052.91;;;1.74;69.09
70521;BME280;58442;52.716;23.560;2023-02-20T03:40:11;101041.39;;;1.74;69.19
70521;BME280;58442;52.716;23.560;2023-02-20T03:42:34;101044.88;;;1.74;69.26
70521;BME280;58442;52.716;23.560;2023-02-20T03:44:53;101054.00;;;1.73;69.28
70521;BME280;58442;52.716;23.560;2023-02-20T03:46:56;101061.75;;;1.75;69.32
70521;BME280;58442;52.716;23.560;2023-02-20T03:49:22;101043.51;;;1.77;69.35
70521;BME280;58442;52.716;23.560;2023-02-20T03:51:14;101055.30;;;1.76;69.42
70521;BME280;58442;52.716;23.560;2023-02-20T03:53:15;101055.30;;;1.76;69.46
70521;BME280;58442;52.716;23.560;2023-02-20T03:55:17;101057.99;;;1.76;69.61
70521;BME280;58442;52.716;23.560;2023-02-20T03:57:26;101066.82;;;1.76;69.70
70521;BME280;58442;52.716;23.560;2023-02-20T03:59:34;101068.71;;;1.76;69.75
70521;BME280;58442;52.716;23.560;2023-02-20T04:01:40;101060.95;;;1.74;69.85
70521;BME280;58442;52.716;23.560;2023-02-20T04:03:47;101055.30;;;1.76;69.90
70521;BME280;58442;52.716;23.560;2023-02-20T04:05:53;101062.26;;;1.77;69.99
70521;BME280;58442;52.716;23.560;2023-02-20T04:10:14;101062.80;;;1.79;70.02
70521;BME280;58442;52.716;23.560;2023-02-20T04:12:26;101056.36;;;1.80;70.06
70521;BME280;58442;52.716;23.560;2023-02-20T04:14:29;101049.91;;;1.81;70.04
70521;BME280;58442;52.716;23.560;2023-02-20T04:16:36;101054.20;;;1.82;70.15
70521;BME280;58442;52.716;23.560;2023-02-20T04:18:40;101053.40;;;1.81;70.21
70521;BME280;58442;52.716;23.560;2023-02-20T04:20:41;101044.55;;;1.81;70.24
70521;BME280;58442;52.716;23.560;2023-02-20T04:22:46;101035.43;;;1.82;70.31
70521;BME280;58442;52.716;23.560;2023-02-20T04:24:53;101060.06;;;1.84;70.37
70521;BME280;58442;52.716;23.560;2023-02-20T04:26:56;101049.08;;;1.85;70.36
70521;BME280;58442;52.716;23.560;2023-02-20T04:28:58;101041.84;;;1.86;70.43
70521;BME280;58442;52.716;23.560;2023-02-20T04:31:01;101041.84;;;1.86;70.44
70521;BME280;58442;52.716;23.560;2023-02-20T04:33:02;101046.12;;;1.87;70.54
70521;BME280;58442;52.716;23.560;2023-02-20T04:35:04;101046.91;;;1.87;70.60
70521;BME280;58442;52.716;23.560;2023-02-20T04:37:12;101043.15;;;1.88;70.55
70521;BME280;58442;52.716;23.560;2023-02-20T04:39:15;101053.59;;;1.90;70.60
70521;BME280;58442;52.716;23.560;2023-02-20T04:41:17;101049.81;;;1.91;70.65
70521;BME280;58442;52.716;23.560;2023-02-20T04:43:18;101033.74;;;1.91;70.68
70521;BME280;58442;52.716;23.560;2023-02-20T04:45:20;101036.15;;;1.93;70.68
70521;BME280;58442;52.716;23.560;2023-02-20T04:47:30;101027.83;;;1.94;70.70
70521;BME280;58442;52.716;23.560;2023-02-20T04:49:32;101035.30;;;1.97;70.75
70521;BME280;58442;52.716;23.560;2023-02-20T04:51:33;101032.61;;;1.97;70.76
70521;BME280;58442;52.716;23.560;2023-02-20T04:53:35;101024.85;;;1.96;70.80
70521;BME280;58442;52.716;23.560;2023-02-20T04:55:45;101025.66;;;1.96;70.87
70521;BME280;58442;52.716;23.560;2023-02-20T04:57:47;101024.85;;;1.96;70.89
70521;BME280;58442;52.716;23.560;2023-02-20T04:59:49;101020.29;;;1.96;70.99
70521;BME280;58442;52.716;23.560;2023-02-20T05:01:50;101027.53;;;1.96;70.97
70521;BME280;58442;52.716;23.560;2023-02-20T05:04:00;101024.06;;;1.95;71.02
70521;BME280;58442;52.716;23.560;2023-02-20T05:06:02;101018.70;;;1.95;71.07
70521;BME280;58442;52.716;23.560;2023-02-20T05:08:05;101017.62;;;1.96;71.14
70521;BME280;58442;52.716;23.560;2023-02-20T05:10:07;101011.17;;;1.97;71.13
70521;BME280;58442;52.716;23.560;2023-02-20T05:12:15;101016.53;;;1.97;71.15
70521;BME280;58442;52.716;23.560;2023-02-20T05:14:17;101010.09;;;1.98;71.18
70521;BME280;58442;52.716;23.560;2023-02-20T05:16:18;101014.10;;;2.01;71.18
70521;BME280;58442;52.716;23.560;2023-02-20T05:18:27;101008.45;;;2.02;71.13
70521;BME280;58442;52.716;23.560;2023-02-20T05:20:30;101008.45;;;2.02;71.15
70521;BME280;58442;52.716;23.560;2023-02-20T05:22:52;101019.16;;;2.02;71.25
70521;BME280;58442;52.716;23.560;2023-02-20T05:24:53;101015.98;;;2.00;71.32
70521;BME280;58442;52.716;23.560;2023-02-20T05:26:55;101001.49;;;2.01;71.31
70521;BME280;58442;52.716;23.560;2023-02-20T05:28:57;101014.89;;;2.01;71.30
70521;BME280;58442;52.716;23.560;2023-02-20T05:31:07;101013.30;;;2.00;71.35
70521;BME280;58442;52.716;23.560;2023-02-20T05:33:08;101014.10;;;2.01;71.59
70521;BME280;58442;52.716;23.560;2023-02-20T05:35:10;101013.55;;;1.99;71.50
70521;BME280;58442;52.716;23.560;2023-02-20T05:37:12;101003.13;;;1.97;71.54
70521;BME280;58442;52.716;23.560;2023-02-20T05:39:22;101021.89;;;1.97;71.59
70521;BME280;58442;52.716;23.560;2023-02-20T05:41:23;101011.17;;;1.97;71.64
70521;BME280;58442;52.716;23.560;2023-02-20T05:43:25;101013.55;;;1.99;71.64
70521;BME280;58442;52.716;23.560;2023-02-20T05:45:26;101023.23;;;2.00;71.67
70521;BME280;58442;52.716;23.560;2023-02-20T05:47:37;101015.19;;;2.00;71.74
70521;BME280;58442;52.716;23.560;2023-02-20T05:49:38;101018.66;;;2.00;71.74
70521;BME280;58442;52.716;23.560;2023-02-20T05:51:40;101022.94;;;2.01;71.77
70521;BME280;58442;52.716;23.560;2023-02-20T05:53:41;101012.20;;;2.01;71.77
70521;BME280;58442;52.716;23.560;2023-02-20T05:55:52;101013.81;;;2.02;71.76
70521;BME280;58442;52.716;23.560;2023-02-20T05:57:53;101009.24;;;2.03;71.78
70521;BME280;58442;52.716;23.560;2023-02-20T05:59:54;101007.06;;;2.05;71.77
70521;BME280;58442;52.716;23.560;2023-02-20T06:01:57;101006.27;;;2.04;71.76
70521;BME280;58442;52.716;23.560;2023-02-20T06:04:07;100997.95;;;2.06;71.80
70521;BME280;58442;52.716;23.560;2023-02-20T06:06:09;101003.05;;;2.07;71.80
70521;BME280;58442;52.716;23.560;2023-02-20T06:08:11;101005.15;;;2.10;71.76
70521;BME280;58442;52.716;23.560;2023-02-20T06:10:14;101004.59;;;2.13;71.67
70521;BME280;58442;52.716;23.560;2023-02-20T06:12:22;101015.83;;;2.15;71.63
70521;BME280;58442;52.716;23.560;2023-02-20T06:14:24;101015.53;;;2.17;71.65
70521;BME280;58442;52.716;23.560;2023-02-20T06:16:28;101017.93;;;2.18;71.63
70521;BME280;58442;52.716;23.560;2023-02-20T06:18:30;101014.99;;;2.20;71.62
70521;BME280;58442;52.716;23.560;2023-02-20T06:20:37;101005.05;;;2.21;71.60
70521;BME280;58442;52.716;23.560;2023-02-20T06:22:38;101008.24;;;2.23;71.60
70521;BME280;58442;52.716;23.560;2023-02-20T06:24:44;101005.78;;;2.26;71.58
70521;BME280;58442;52.716;23.560;2023-02-20T06:26:46;101000.15;;;2.28;71.52
70521;BME280;58442;52.716;23.560;2023-02-20T06:28:52;100999.06;;;2.29;71.52
70521;BME280;58442;52.716;23.560;2023-02-20T06:30:54;101011.89;;;2.32;71.52
70521;BME280;58442;52.716;23.560;2023-02-20T06:32:56;101005.43;;;2.33;71.50
70521;BME280;58442;52.716;23.560;2023-02-20T06:34:57;101008.91;;;2.33;71.47
70521;BME280;58442;52.716;23.560;2023-02-20T06:37:07;101000.60;;;2.35;71.49
70521;BME280;58442;52.716;23.560;2023-02-20T06:39:10;101010.25;;;2.36;71.39
70521;BME280;58442;52.716;23.560;2023-02-20T06:41:12;101016.11;;;2.38;71.51
70521;BME280;58442;52.716;23.560;2023-02-20T06:43:13;101013.68;;;2.41;71.48
70521;BME280;58442;52.716;23.560;2023-02-20T06:45:22;101010.41;;;2.44;71.40
70521;BME280;58442;52.716;23.560;2023-02-20T06:47:23;101015.23;;;2.48;71.39
70521;BME280;58442;52.716;23.560;2023-02-20T06:49:25;101019.20;;;2.50;71.35
70521;BME280;58442;52.716;23.560;2023-02-20T06:51:32;101004.70;;;2.51;71.32
70521;BME280;58442;52.716;23.560;2023-02-20T06:53:37;101002.52;;;2.53;71.29
70521;BME280;58442;52.716;23.560;2023-02-20T06:55:42;101009.51;;;2.54;71.29
70521;BME280;58442;52.716;23.560;2023-02-20T06:57:43;101004.65;;;2.56;71.28
70521;BME280;58442;52.716;23.560;2023-02-20T06:59:46;100993.91;;;2.56;71.26
70521;BME280;58442;52.716;23.560;2023-02-20T07:01:52;101002.76;;;2.57;71.25
70521;BME280;58442;52.716;23.560;2023-02-20T07:03:55;101012.12;;;2.59;71.22
70521;BME280;58442;52.716;23.560;2023-02-20T07:05:57;101015.03;;;2.63;71.18
70521;BME280;58442;52.716;23.560;2023-02-20T07:07:58;101008.29;;;2.65;71.12
70521;BME280;58442;52.716;23.560;2023-02-20T07:10:07;101009.88;;;2.66;71.10
70521;BME280;58442;52.716;23.560;2023-02-20T07:12:08;101007.72;;;2.68;71.10
70521;BME280;58442;52.716;23.560;2023-02-20T07:14:10;100998.00;;;2.72;71.03
70521;BME280;58442;52.716;23.560;2023-02-20T07:16:11;101001.21;;;2.74;71.03
70521;BME280;58442;52.716;23.560;2023-02-20T07:18:22;100989.88;;;2.78;70.90
70521;BME280;58442;52.716;23.560;2023-02-20T07:20:24;100982.34;;;2.80;70.84
70521;BME280;58442;52.716;23.560;2023-02-20T07:22:25;100983.66;;;2.82;70.79
70521;BME280;58442;52.716;23.560;2023-02-20T07:24:26;100982.27;;;2.85;70.70
70521;BME280;58442;52.716;23.560;2023-02-20T07:26:37;100970.95;;;2.88;70.64
70521;BME280;58442;52.716;23.560;2023-02-20T07:28:39;100973.06;;;2.91;70.58
70521;BME280;58442;52.716;23.560;2023-02-20T07:30:41;100958.25;;;2.93;70.53
70521;BME280;58442;52.716;23.560;2023-02-20T07:32:43;100969.23;;;2.97;70.49
70521;BME280;58442;52.716;23.560;2023-02-20T07:34:52;100959.28;;;2.97;70.46
70521;BME280;58442;52.716;23.560;2023-02-20T07:36:53;100960.58;;;3.00;70.42
70521;BME280;58442;52.716;23.560;2023-02-20T07:38:56;100953.86;;;3.03;70.31
70521;BME280;58442;52.716;23.560;2023-02-20T07:40:58;100951.36;;;3.06;70.20
70521;BME280;58442;52.716;23.560;2023-02-20T07:43:07;100954.55;;;3.08;70.18
70521;BME280;58442;52.716;23.560;2023-02-20T07:45:10;100954.78;;;3.12;70.10
70521;BME280;58442;52.716;23.560;2023-02-20T07:47:12;100959.28;;;3.16;70.08
70521;BME280;58442;52.716;23.560;2023-02-20T07:49:13;100957.30;;;3.22;69.94
70521;BME280;58442;52.716;23.560;2023-02-20T07:51:22;100944.59;;;3.27;69.83
70521;BME280;58442;52.716;23.560;2023-02-20T07:53:23;100936.45;;;3.33;69.72
70521;BME280;58442;52.716;23.560;2023-02-20T07:55:24;100942.55;;;3.38;69.62
70521;BME280;58442;52.716;23.560;2023-02-20T07:57:26;100936.80;;;3.45;69.54
70521;BME280;58442;52.716;23.560;2023-02-20T07:59:37;100935.02;;;3.54;69.41
70521;BME280;58442;52.716;23.560;2023-02-20T08:01:38;100932.75;;;3.61;69.23
70521;BME280;58442;52.716;23.560;2023-02-20T08:03:40;100922.23;;;3.65;69.12
70521;BME280;58442;52.716;23.560;2023-02-20T08:05:41;100920.83;;;3.67;69.06
70521;BME280;58442;52.716;23.560;2023-02-20T08:07:52;100917.52;;;3.70;69.00
70521;BME280;58442;52.716;23.560;2023-02-20T08:09:54;100908.89;;;3.73;68.90
70521;BME280;58442;52.716;23.560;2023-02-20T08:11:55;100914.75;;;3.75;68.81
70521;BME280;58442;52.716;23.560;2023-02-20T08:13:57;100899.13;;;3.77;68.75
70521;BME280;58442;52.716;23.560;2023-02-20T08:16:07;100888.09;;;3.79;68.72
70521;BME280;58442;52.716;23.560;2023-02-20T08:18:08;100889.38;;;3.81;68.63
70521;BME280;58442;52.716;23.560;2023-02-20T08:20:11;100882.33;;;3.86;68.61
70521;BME280;58442;52.716;23.560;2023-02-20T08:22:12;100878.53;;;3.87;68.41
70521;BME280;58442;52.716;23.560;2023-02-20T08:25:26;100882.11;;;3.96;68.41
70521;BME280;58442;52.716;23.560;2023-02-20T08:27:28;100878.84;;;3.99;68.33
70521;BME280;58442;52.716;23.560;2023-02-20T08:29:29;100869.06;;;4.03;68.23
70521;BME280;58442;52.716;23.560;2023-02-20T08:31:42;100860.90;;;4.08;68.11
70521;BME280;58442;52.716;23.560;2023-02-20T08:33:44;100857.59;;;4.11;67.81
70521;BME280;58442;52.716;23.560;2023-02-20T08:35:45;100853.84;;;4.12;67.81
70521;BME280;58442;52.716;23.560;2023-02-20T08:37:51;100847.63;;;4.11;67.78
70521;BME280;58442;52.716;23.560;2023-02-20T08:39:56;100838.49;;;4.13;67.78
70521;BME280;58442;52.716;23.560;2023-02-20T08:41:58;100839.28;;;4.13;67.76
70521;BME280;58442;52.716;23.560;2023-02-20T08:43:59;100838.18;;;4.14;67.76
70521;BME280;58442;52.716;23.560;2023-02-20T08:46:00;100823.14;;;4.13;67.71
70521;BME280;58442;52.716;23.560;2023-02-20T08:48:13;100825.84;;;4.13;67.69
70521;BME280;58442;52.716;23.560;2023-02-20T08:50:16;100825.84;;;4.13;67.71
70521;BME280;58442;52.716;23.560;2023-02-20T08:52:18;100823.94;;;4.14;67.69
70521;BME280;58442;52.716;23.560;2023-02-20T08:54:20;100823.63;;;4.15;67.67
70521;BME280;58442;52.716;23.560;2023-02-20T08:56:26;100820.94;;;4.15;67.66
70521;BME280;58442;52.716;23.560;2023-02-20T08:58:28;100817.16;;;4.16;67.56
70521;BME280;58442;52.716;23.560;2023-02-20T09:00:29;100816.84;;;4.18;67.56
70521;BME280;58442;52.716;23.560;2023-02-20T09:02:30;100811.19;;;4.19;67.43
70521;BME280;58442;52.716;23.560;2023-02-20T09:04:43;100810.56;;;4.22;67.49
70521;BME280;58442;52.716;23.560;2023-02-20T09:06:45;100805.68;;;4.24;67.46
70521;BME280;58442;52.716;23.560;2023-02-20T09:08:47;100802.39;;;4.27;67.44
70521;BME280;58442;52.716;23.560;2023-02-20T09:10:49;100782.94;;;4.30;67.39
70521;BME280;58442;52.716;23.560;2023-02-20T09:12:56;100786.15;;;4.32;67.34
70521;BME280;58442;52.716;23.560;2023-02-20T09:14:58;100782.35;;;4.33;67.14
70521;BME280;58442;52.716;23.560;2023-02-20T09:17:02;100763.00;;;4.31;67.16
70521;BME280;58442;52.716;23.560;2023-02-20T09:19:04;100766.20;;;4.33;67.16
70521;BME280;58442;52.716;23.560;2023-02-20T09:21:13;100754.34;;;4.34;67.12
70521;BME280;58442;52.716;23.560;2023-02-20T09:23:14;100759.73;;;4.34;67.06
70521;BME280;58442;52.716;23.560;2023-02-20T09:25:17;100755.93;;;4.35;67.06
70521;BME280;58442;52.716;23.560;2023-02-20T09:27:19;100757.99;;;4.38;67.04
70521;BME280;58442;52.716;23.560;2023-02-20T09:29:27;100753.12;;;4.41;66.99
70521;BME280;58442;52.716;23.560;2023-02-20T09:31:28;100751.54;;;4.39;66.91
70521;BME280;58442;52.716;23.560;2023-02-20T09:33:29;100767.96;;;4.38;66.93
70521;BME280;58442;52.716;23.560;2023-02-20T09:35:31;100759.73;;;4.34;66.94
70521;BME280;58442;52.716;23.560;2023-02-20T09:37:41;100746.39;;;4.29;67.00
70521;BME280;58442;52.716;23.560;2023-02-20T09:39:44;100743.80;;;4.24;67.02
70521;BME280;58442;52.716;23.560;2023-02-20T09:46:18;100740.78;;;4.03;67.34
70521;BME280;58442;52.716;23.560;2023-02-20T09:50:43;100732.54;;;4.00;67.33
70521;BME280;58442;52.716;23.560;2023-02-20T09:52:51;100720.20;;;3.99;67.32
70521;BME280;58442;52.716;23.560;2023-02-20T09:55:03;100716.99;;;3.97;67.39
70521;BME280;58442;52.716;23.560;2023-02-20T09:57:13;100706.23;;;3.97;67.42
70521;BME280;58442;52.716;23.560;2023-02-20T09:59:24;100713.82;;;3.95;67.41
70521;BME280;58442;52.716;23.560;2023-02-20T10:01:27;100689.93;;;3.93;67.47
70521;BME280;58442;52.716;23.560;2023-02-20T10:03:38;100686.45;;;3.93;67.44
70521;BME280;58442;52.716;23.560;2023-02-20T10:05:42;100676.80;;;3.92;67.46
70521;BME280;58442;52.716;23.560;2023-02-20T10:07:48;100684.55;;;3.93;67.43
70521;BME280;58442;52.716;23.560;2023-02-20T10:09:50;100683.25;;;3.91;67.39
70521;BME280;58442;52.716;23.560;2023-02-20T10:14:14;100667.06;;;3.82;67.55
70521;BME280;58442;52.716;23.560;2023-02-20T10:23:13;100645.74;;;3.86;67.62
70521;BME280;58442;52.716;23.560;2023-02-20T10:25:39;100640.86;;;3.88;67.61
70521;BME280;58442;52.716;23.560;2023-02-20T10:29:58;100614.28;;;3.86;67.56
70521;BME280;58442;52.716;23.560;2023-02-20T10:32:20;100609.02;;;3.81;67.66
70521;BME280;58442;52.716;23.560;2023-02-20T10:34:33;100593.79;;;3.76;67.83
70521;BME280;58442;52.716;23.560;2023-02-20T10:36:40;100584.15;;;3.75;67.95
70521;BME280;58442;52.716;23.560;2023-02-20T10:39:00;100568.02;;;3.75;67.91
70521;BME280;58442;52.716;23.560;2023-02-20T10:43:18;100542.37;;;3.69;68.10
70521;BME280;58442;52.716;23.560;2023-02-20T10:47:56;100524.29;;;3.61;68.43
70521;BME280;58442;52.716;23.560;2023-02-20T10:50:07;100517.64;;;3.59;68.58
70521;BME280;58442;52.716;23.560;2023-02-20T10:52:13;100505.11;;;3.54;68.69
70521;BME280;58442;52.716;23.560;2023-02-20T10:54:21;100493.88;;;3.52;68.78
70521;BME280;58442;52.716;23.560;2023-02-20T10:56:33;100494.99;;;3.51;68.78
70521;BME280;58442;52.716;23.560;2023-02-20T10:58:47;100491.31;;;3.47;68.80
70521;BME280;58442;52.716;23.560;2023-02-20T11:01:02;100482.27;;;3.43;68.98
70521;BME280;58442;52.716;23.560;2023-02-20T11:05:25;100475.46;;;3.37;69.23
70521;BME280;58442;52.716;23.560;2023-02-20T11:07:27;100477.15;;;3.33;69.31
70521;BME280;58442;52.716;23.560;2023-02-20T11:09:29;100479.36;;;3.31;69.44
70521;BME280;58442;52.716;23.560;2023-02-20T11:11:37;100465.73;;;3.27;69.54
70521;BME280;58442;52.716;23.560;2023-02-20T11:13:45;100457.98;;;3.25;69.60
70521;BME280;58442;52.716;23.560;2023-02-20T11:15:47;100449.45;;;3.23;69.67
70521;BME280;58442;52.716;23.560;2023-02-20T11:17:52;100445.98;;;3.23;69.72
70521;BME280;58442;52.716;23.560;2023-02-20T11:19:58;100425.88;;;3.20;69.87
70521;BME280;58442;52.716;23.560;2023-02-20T11:22:06;100424.29;;;3.19;69.93
70521;BME280;58442;52.716;23.560;2023-02-20T11:26:26;100404.34;;;3.12;70.13
70521;BME280;58442;52.716;23.560;2023-02-20T11:28:31;100395.80;;;3.10;70.14
70521;BME280;58442;52.716;23.560;2023-02-20T11:30:35;100377.61;;;3.07;70.29
70521;BME280;58442;52.716;23.560;2023-02-20T11:32:40;100375.23;;;3.05;70.30
70521;BME280;58442;52.716;23.560;2023-02-20T11:34:41;100365.60;;;3.04;70.38
70521;BME280;58442;52.716;23.560;2023-02-20T11:36:54;100345.23;;;3.03;70.45
70521;BME280;58442;52.716;23.560;2023-02-20T11:41:34;100322.77;;;2.99;70.65
70521;BME280;58442;52.716;23.560;2023-02-20T11:43:41;100308.87;;;2.97;70.80
70521;BME280;58442;52.716;23.560;2023-02-20T11:45:45;100297.47;;;2.91;70.86
70521;BME280;58442;52.716;23.560;2023-02-20T11:52:20;100247.97;;;2.75;71.39
70521;BME280;58442;52.716;23.560;2023-02-20T11:54:32;100239.91;;;2.75;71.50
70521;BME280;58442;52.716;23.560;2023-02-20T11:56:34;100236.92;;;2.77;71.48
70521;BME280;58442;52.716;23.560;2023-02-20T11:58:36;100234.72;;;2.79;71.43
70521;BME280;58442;52.716;23.560;2023-02-20T12:00:45;100221.30;;;2.79;71.43
70521;BME280;58442;52.716;23.560;2023-02-20T12:02:49;100213.57;;;2.77;71.53
70521;BME280;58442;52.716;23.560;2023-02-20T12:09:23;100197.89;;;2.70;71.90